sensor_id;sensor_type;location;lat;lon;timestamp;temperature;humidity
53926;DHT22;39836;52.754;6.866;2022-09-01T00:02:11;15.40;72.20
53926;DHT22;39836;52.754;6.866;2022-09-01T00:04:38;15.40;72.30
53926;DHT22;39836;52.754;6.866;2022-09-01T00:07:05;15.40;72.30
53926;DHT22;39836;52.754;6.866;2022-09-01T00:09:31;15.40;72.20
53926;DHT22;39836;52.754;6.866;2022-09-01T00:11:57;15.30;72.20
53926;DHT22;39836;52.754;6.866;2022-09-01T00:14:27;15.30;72.20
53926;DHT22;39836;52.754;6.866;2022-09-01T00:16:53;15.30;72.30
53926;DHT22;39836;52.754;6.866;2022-09-01T00:19:21;15.20;72.20
53926;DHT22;39836;52.754;6.866;2022-09-01T00:21:46;15.20;72.20
53926;DHT22;39836;52.754;6.866;2022-09-01T00:24:14;15.20;72.20
53926;DHT22;39836;52.754;6.866;2022-09-01T00:26:40;15.20;72.20
53926;DHT22;39836;52.754;6.866;2022-09-01T00:29:07;15.20;72.20
53926;DHT22;39836;52.754;6.866;2022-09-01T00:31:33;15.20;72.20
53926;DHT22;39836;52.754;6.866;2022-09-01T00:33:59;15.10;72.10
53926;DHT22;39836;52.754;6.866;2022-09-01T00:36:25;15.10;72.10
53926;DHT22;39836;52.754;6.866;2022-09-01T00:38:52;15.10;72.10
53926;DHT22;39836;52.754;6.866;2022-09-01T00:41:21;15.00;72.20
53926;DHT22;39836;52.754;6.866;2022-09-01T00:43:50;15.00;72.10
53926;DHT22;39836;52.754;6.866;2022-09-01T00:46:23;15.00;72.10
53926;DHT22;39836;52.754;6.866;2022-09-01T00:49:00;15.00;72.10
53926;DHT22;39836;52.754;6.866;2022-09-01T00:51:27;15.00;72.10
53926;DHT22;39836;52.754;6.866;2022-09-01T00:53:53;14.90;72.10
53926;DHT22;39836;52.754;6.866;2022-09-01T00:56:21;14.90;72.10
53926;DHT22;39836;52.754;6.866;2022-09-01T00:58:49;14.90;72.10
53926;DHT22;39836;52.754;6.866;2022-09-01T01:01:16;14.90;72.10
53926;DHT22;39836;52.754;6.866;2022-09-01T01:03:42;14.80;72.00
53926;DHT22;39836;52.754;6.866;2022-09-01T01:06:10;14.80;72.00
53926;DHT22;39836;52.754;6.866;2022-09-01T01:08:41;14.80;72.00
53926;DHT22;39836;52.754;6.866;2022-09-01T01:11:13;14.80;72.00
53926;DHT22;39836;52.754;6.866;2022-09-01T01:13:51;14.80;72.00
53926;DHT22;39836;52.754;6.866;2022-09-01T01:16:19;14.80;72.00
53926;DHT22;39836;52.754;6.866;2022-09-01T01:18:45;14.80;72.00
53926;DHT22;39836;52.754;6.866;2022-09-01T01:21:20;14.70;72.00
53926;DHT22;39836;52.754;6.866;2022-09-01T01:26:42;14.60;72.00
53926;DHT22;39836;52.754;6.866;2022-09-01T01:29:09;14.60;72.00
53926;DHT22;39836;52.754;6.866;2022-09-01T01:31:35;14.60;72.00
53926;DHT22;39836;52.754;6.866;2022-09-01T01:34:04;14.60;72.00
53926;DHT22;39836;52.754;6.866;2022-09-01T01:36:35;14.60;72.00
53926;DHT22;39836;52.754;6.866;2022-09-01T01:41:33;14.50;72.10
53926;DHT22;39836;52.754;6.866;2022-09-01T01:44:01;14.50;72.10
53926;DHT22;39836;52.754;6.866;2022-09-01T01:46:30;14.40;72.10
53926;DHT22;39836;52.754;6.866;2022-09-01T01:48:57;14.50;72.10
53926;DHT22;39836;52.754;6.866;2022-09-01T01:51:25;14.40;72.10
53926;DHT22;39836;52.754;6.866;2022-09-01T01:53:57;14.40;72.10
53926;DHT22;39836;52.754;6.866;2022-09-01T01:56:24;14.40;72.10
53926;DHT22;39836;52.754;6.866;2022-09-01T01:58:54;14.30;72.10
53926;DHT22;39836;52.754;6.866;2022-09-01T02:01:23;14.30;72.10
53926;DHT22;39836;52.754;6.866;2022-09-01T02:03:51;14.30;72.20
53926;DHT22;39836;52.754;6.866;2022-09-01T02:06:20;14.30;72.20
53926;DHT22;39836;52.754;6.866;2022-09-01T02:08:50;14.30;72.20
53926;DHT22;39836;52.754;6.866;2022-09-01T02:11:21;14.20;72.20
53926;DHT22;39836;52.754;6.866;2022-09-01T02:13:47;14.20;72.20
53926;DHT22;39836;52.754;6.866;2022-09-01T02:16:14;14.20;72.20
53926;DHT22;39836;52.754;6.866;2022-09-01T02:18:46;14.20;72.20
53926;DHT22;39836;52.754;6.866;2022-09-01T02:21:13;14.20;72.20
53926;DHT22;39836;52.754;6.866;2022-09-01T02:23:46;14.20;72.30
53926;DHT22;39836;52.754;6.866;2022-09-01T02:26:13;14.20;72.30
53926;DHT22;39836;52.754;6.866;2022-09-01T02:28:41;14.10;72.30
53926;DHT22;39836;52.754;6.866;2022-09-01T02:31:09;14.10;72.30
53926;DHT22;39836;52.754;6.866;2022-09-01T02:33:36;14.10;72.40
53926;DHT22;39836;52.754;6.866;2022-09-01T02:36:08;14.00;72.30
53926;DHT22;39836;52.754;6.866;2022-09-01T02:38:37;14.00;72.40
53926;DHT22;39836;52.754;6.866;2022-09-01T02:41:07;14.30;72.50
53926;DHT22;39836;52.754;6.866;2022-09-01T02:43:33;14.00;72.40
53926;DHT22;39836;52.754;6.866;2022-09-01T02:46:00;14.00;72.40
53926;DHT22;39836;52.754;6.866;2022-09-01T02:48:31;14.00;72.40
53926;DHT22;39836;52.754;6.866;2022-09-01T02:51:04;13.90;72.50
53926;DHT22;39836;52.754;6.866;2022-09-01T02:53:31;13.90;72.50
53926;DHT22;39836;52.754;6.866;2022-09-01T02:56:00;13.90;72.50
53926;DHT22;39836;52.754;6.866;2022-09-01T02:58:28;13.90;72.50
53926;DHT22;39836;52.754;6.866;2022-09-01T03:00:56;13.90;72.50
53926;DHT22;39836;52.754;6.866;2022-09-01T03:03:23;13.90;72.50
53926;DHT22;39836;52.754;6.866;2022-09-01T03:05:52;13.90;72.60
53926;DHT22;39836;52.754;6.866;2022-09-01T03:08:23;13.80;72.60
53926;DHT22;39836;52.754;6.866;2022-09-01T03:10:49;13.80;72.60
53926;DHT22;39836;52.754;6.866;2022-09-01T03:13:20;13.80;72.70
53926;DHT22;39836;52.754;6.866;2022-09-01T03:15:47;13.80;72.70
53926;DHT22;39836;52.754;6.866;2022-09-01T03:18:13;13.80;72.60
53926;DHT22;39836;52.754;6.866;2022-09-01T03:20:42;13.80;72.80
53926;DHT22;39836;52.754;6.866;2022-09-01T03:23:11;13.80;72.70
53926;DHT22;39836;52.754;6.866;2022-09-01T03:25:40;13.80;72.70
53926;DHT22;39836;52.754;6.866;2022-09-01T03:28:06;13.70;72.80
53926;DHT22;39836;52.754;6.866;2022-09-01T03:30:34;13.70;72.70
53926;DHT22;39836;52.754;6.866;2022-09-01T03:33:02;13.70;72.80
53926;DHT22;39836;52.754;6.866;2022-09-01T03:35:29;13.70;72.80
53926;DHT22;39836;52.754;6.866;2022-09-01T03:37:57;13.70;72.90
53926;DHT22;39836;52.754;6.866;2022-09-01T03:40:26;13.70;72.90
53926;DHT22;39836;52.754;6.866;2022-09-01T03:42:53;13.70;72.90
53926;DHT22;39836;52.754;6.866;2022-09-01T03:45:19;13.70;73.00
53926;DHT22;39836;52.754;6.866;2022-09-01T03:47:45;13.70;72.90
53926;DHT22;39836;52.754;6.866;2022-09-01T03:50:15;13.70;72.90
53926;DHT22;39836;52.754;6.866;2022-09-01T03:52:48;13.80;73.00
53926;DHT22;39836;52.754;6.866;2022-09-01T03:55:15;13.80;73.10
53926;DHT22;39836;52.754;6.866;2022-09-01T03:57:58;13.80;73.00
53926;DHT22;39836;52.754;6.866;2022-09-01T04:00:26;13.80;72.90
53926;DHT22;39836;52.754;6.866;2022-09-01T04:02:56;13.80;72.90
53926;DHT22;39836;52.754;6.866;2022-09-01T04:05:28;13.80;73.10
53926;DHT22;39836;52.754;6.866;2022-09-01T04:07:55;13.80;72.90
53926;DHT22;39836;52.754;6.866;2022-09-01T04:10:22;13.80;72.90
53926;DHT22;39836;52.754;6.866;2022-09-01T04:12:49;13.80;72.90
53926;DHT22;39836;52.754;6.866;2022-09-01T04:15:16;13.80;73.00
53926;DHT22;39836;52.754;6.866;2022-09-01T04:17:43;13.80;72.90
53926;DHT22;39836;52.754;6.866;2022-09-01T04:20:27;13.80;73.00
53926;DHT22;39836;52.754;6.866;2022-09-01T04:22:53;13.80;73.00
53926;DHT22;39836;52.754;6.866;2022-09-01T04:25:20;13.80;73.00
53926;DHT22;39836;52.754;6.866;2022-09-01T04:27:52;13.70;73.00
53926;DHT22;39836;52.754;6.866;2022-09-01T04:30:22;13.70;73.00
53926;DHT22;39836;52.754;6.866;2022-09-01T04:32:51;13.70;73.10
53926;DHT22;39836;52.754;6.866;2022-09-01T04:35:20;13.70;73.10
53926;DHT22;39836;52.754;6.866;2022-09-01T04:38:00;13.60;73.10
53926;DHT22;39836;52.754;6.866;2022-09-01T04:40:27;13.60;73.10
53926;DHT22;39836;52.754;6.866;2022-09-01T04:42:52;13.60;73.10
53926;DHT22;39836;52.754;6.866;2022-09-01T04:45:18;13.60;73.20
53926;DHT22;39836;52.754;6.866;2022-09-01T04:47:47;13.60;73.10
53926;DHT22;39836;52.754;6.866;2022-09-01T04:50:13;13.50;73.20
53926;DHT22;39836;52.754;6.866;2022-09-01T04:52:45;13.50;73.30
53926;DHT22;39836;52.754;6.866;2022-09-01T04:55:13;13.50;73.30
53926;DHT22;39836;52.754;6.866;2022-09-01T04:57:46;13.50;73.40
53926;DHT22;39836;52.754;6.866;2022-09-01T05:00:19;13.40;73.40
53926;DHT22;39836;52.754;6.866;2022-09-01T05:02:56;13.40;73.50
53926;DHT22;39836;52.754;6.866;2022-09-01T05:05:28;13.40;73.40
53926;DHT22;39836;52.754;6.866;2022-09-01T05:07:53;13.40;73.50
53926;DHT22;39836;52.754;6.866;2022-09-01T05:10:21;13.40;73.50
53926;DHT22;39836;52.754;6.866;2022-09-01T05:12:47;13.40;73.50
53926;DHT22;39836;52.754;6.866;2022-09-01T05:15:14;13.40;73.60
53926;DHT22;39836;52.754;6.866;2022-09-01T05:17:42;13.40;73.50
53926;DHT22;39836;52.754;6.866;2022-09-01T05:20:09;13.40;73.60
53926;DHT22;39836;52.754;6.866;2022-09-01T05:22:36;13.40;73.60
53926;DHT22;39836;52.754;6.866;2022-09-01T05:25:07;13.40;73.70
53926;DHT22;39836;52.754;6.866;2022-09-01T05:27:43;13.40;73.70
53926;DHT22;39836;52.754;6.866;2022-09-01T05:30:17;13.50;73.80
53926;DHT22;39836;52.754;6.866;2022-09-01T05:32:43;13.50;73.80
53926;DHT22;39836;52.754;6.866;2022-09-01T05:35:11;13.50;73.80
53926;DHT22;39836;52.754;6.866;2022-09-01T05:37:37;13.50;73.80
53926;DHT22;39836;52.754;6.866;2022-09-01T05:40:09;13.50;73.70
53926;DHT22;39836;52.754;6.866;2022-09-01T05:42:41;13.60;73.80
53926;DHT22;39836;52.754;6.866;2022-09-01T05:45:07;13.60;73.80
53926;DHT22;39836;52.754;6.866;2022-09-01T05:47:37;13.60;73.70
53926;DHT22;39836;52.754;6.866;2022-09-01T05:50:04;13.60;73.70
53926;DHT22;39836;52.754;6.866;2022-09-01T05:52:33;13.70;73.80
53926;DHT22;39836;52.754;6.866;2022-09-01T05:55:01;13.70;73.80
53926;DHT22;39836;52.754;6.866;2022-09-01T05:57:27;13.80;73.80
53926;DHT22;39836;52.754;6.866;2022-09-01T05:59:52;13.80;73.70
53926;DHT22;39836;52.754;6.866;2022-09-01T06:02:23;13.90;73.80
53926;DHT22;39836;52.754;6.866;2022-09-01T06:04:50;13.90;73.70
53926;DHT22;39836;52.754;6.866;2022-09-01T06:07:17;13.90;73.70
53926;DHT22;39836;52.754;6.866;2022-09-01T06:09:47;14.00;73.70
53926;DHT22;39836;52.754;6.866;2022-09-01T06:12:15;14.10;73.80
53926;DHT22;39836;52.754;6.866;2022-09-01T06:14:49;14.10;73.70
53926;DHT22;39836;52.754;6.866;2022-09-01T06:17:17;14.20;73.70
53926;DHT22;39836;52.754;6.866;2022-09-01T06:19:50;14.20;73.60
53926;DHT22;39836;52.754;6.866;2022-09-01T06:22:24;14.30;73.60
53926;DHT22;39836;52.754;6.866;2022-09-01T06:24:53;14.30;73.60
53926;DHT22;39836;52.754;6.866;2022-09-01T06:27:20;14.40;73.60
53926;DHT22;39836;52.754;6.866;2022-09-01T06:29:46;14.50;73.60
53926;DHT22;39836;52.754;6.866;2022-09-01T06:32:19;14.50;73.50
53926;DHT22;39836;52.754;6.866;2022-09-01T06:34:45;14.60;73.50
53926;DHT22;39836;52.754;6.866;2022-09-01T06:37:16;14.70;73.50
53926;DHT22;39836;52.754;6.866;2022-09-01T06:39:47;14.70;73.40
53926;DHT22;39836;52.754;6.866;2022-09-01T06:42:13;14.80;73.50
53926;DHT22;39836;52.754;6.866;2022-09-01T06:44:40;14.80;73.40
53926;DHT22;39836;52.754;6.866;2022-09-01T06:47:05;14.90;73.30
53926;DHT22;39836;52.754;6.866;2022-09-01T06:49:34;15.00;73.30
53926;DHT22;39836;52.754;6.866;2022-09-01T06:52:02;15.00;73.40
53926;DHT22;39836;52.754;6.866;2022-09-01T06:54:29;15.10;73.30
53926;DHT22;39836;52.754;6.866;2022-09-01T06:57:03;15.20;73.40
53926;DHT22;39836;52.754;6.866;2022-09-01T06:59:30;15.20;73.30
53926;DHT22;39836;52.754;6.866;2022-09-01T07:01:57;15.30;73.30
53926;DHT22;39836;52.754;6.866;2022-09-01T07:04:27;15.40;73.20
53926;DHT22;39836;52.754;6.866;2022-09-01T07:06:54;15.40;73.20
53926;DHT22;39836;52.754;6.866;2022-09-01T07:09:22;15.50;73.20
53926;DHT22;39836;52.754;6.866;2022-09-01T07:11:48;15.60;73.20
53926;DHT22;39836;52.754;6.866;2022-09-01T07:14:15;15.70;73.20
53926;DHT22;39836;52.754;6.866;2022-09-01T07:16:42;15.70;73.10
53926;DHT22;39836;52.754;6.866;2022-09-01T07:19:09;15.80;73.10
53926;DHT22;39836;52.754;6.866;2022-09-01T07:21:38;15.80;73.10
53926;DHT22;39836;52.754;6.866;2022-09-01T07:24:04;16.00;73.10
53926;DHT22;39836;52.754;6.866;2022-09-01T07:26:31;16.00;73.00
53926;DHT22;39836;52.754;6.866;2022-09-01T07:28:58;16.10;72.90
53926;DHT22;39836;52.754;6.866;2022-09-01T07:31:30;16.20;72.80
53926;DHT22;39836;52.754;6.866;2022-09-01T07:34:01;16.30;72.80
53926;DHT22;39836;52.754;6.866;2022-09-01T07:36:28;16.40;72.80
53926;DHT22;39836;52.754;6.866;2022-09-01T07:38:54;16.50;72.70
53926;DHT22;39836;52.754;6.866;2022-09-01T07:41:21;16.60;72.70
53926;DHT22;39836;52.754;6.866;2022-09-01T07:43:48;16.60;72.60
53926;DHT22;39836;52.754;6.866;2022-09-01T07:46:16;16.80;72.50
53926;DHT22;39836;52.754;6.866;2022-09-01T07:48:42;17.00;72.30
53926;DHT22;39836;52.754;6.866;2022-09-01T07:51:11;17.00;72.20
53926;DHT22;39836;52.754;6.866;2022-09-01T07:53:37;17.20;72.00
53926;DHT22;39836;52.754;6.866;2022-09-01T07:56:08;17.30;72.10
53926;DHT22;39836;52.754;6.866;2022-09-01T07:58:36;17.40;72.10
53926;DHT22;39836;52.754;6.866;2022-09-01T08:01:16;17.50;71.80
53926;DHT22;39836;52.754;6.866;2022-09-01T08:03:48;17.60;71.70
53926;DHT22;39836;52.754;6.866;2022-09-01T08:06:19;17.70;71.40
53926;DHT22;39836;52.754;6.866;2022-09-01T08:08:49;17.80;71.40
53926;DHT22;39836;52.754;6.866;2022-09-01T08:11:21;17.90;71.30
53926;DHT22;39836;52.754;6.866;2022-09-01T08:13:49;18.10;71.10
53926;DHT22;39836;52.754;6.866;2022-09-01T08:16:15;18.20;71.20
53926;DHT22;39836;52.754;6.866;2022-09-01T08:18:42;18.30;71.20
53926;DHT22;39836;52.754;6.866;2022-09-01T08:21:12;18.40;71.10
53926;DHT22;39836;52.754;6.866;2022-09-01T08:23:38;18.50;70.90
53926;DHT22;39836;52.754;6.866;2022-09-01T08:26:06;18.50;70.80
53926;DHT22;39836;52.754;6.866;2022-09-01T08:28:33;18.60;70.70
53926;DHT22;39836;52.754;6.866;2022-09-01T08:30:58;18.60;70.50
53926;DHT22;39836;52.754;6.866;2022-09-01T08:33:25;18.90;70.40
53926;DHT22;39836;52.754;6.866;2022-09-01T08:35:51;19.10;70.30
53926;DHT22;39836;52.754;6.866;2022-09-01T08:38:18;19.30;70.10
53926;DHT22;39836;52.754;6.866;2022-09-01T08:40:51;19.50;69.90
53926;DHT22;39836;52.754;6.866;2022-09-01T08:46:10;19.80;69.40
53926;DHT22;39836;52.754;6.866;2022-09-01T08:48:42;19.90;69.40
53926;DHT22;39836;52.754;6.866;2022-09-01T08:51:37;20.00;69.20
53926;DHT22;39836;52.754;6.866;2022-09-01T08:54:06;20.20;69.20
53926;DHT22;39836;52.754;6.866;2022-09-01T08:56:36;20.40;69.10
53926;DHT22;39836;52.754;6.866;2022-09-01T08:59:03;20.60;69.20
53926;DHT22;39836;52.754;6.866;2022-09-01T09:04:16;20.70;68.50
53926;DHT22;39836;52.754;6.866;2022-09-01T09:07:44;20.70;68.30
53926;DHT22;39836;52.754;6.866;2022-09-01T09:10:31;20.70;67.80
53926;DHT22;39836;52.754;6.866;2022-09-01T09:13:10;20.90;67.70
53926;DHT22;39836;52.754;6.866;2022-09-01T09:15:53;21.00;67.30
53926;DHT22;39836;52.754;6.866;2022-09-01T09:19:00;21.10;67.30
53926;DHT22;39836;52.754;6.866;2022-09-01T09:21:41;21.10;67.10
53926;DHT22;39836;52.754;6.866;2022-09-01T09:26:56;21.30;66.50
53926;DHT22;39836;52.754;6.866;2022-09-01T09:29:24;21.40;66.80
53926;DHT22;39836;52.754;6.866;2022-09-01T09:32:20;21.40;66.10
53926;DHT22;39836;52.754;6.866;2022-09-01T09:34:47;21.60;66.50
53926;DHT22;39836;52.754;6.866;2022-09-01T09:37:23;21.60;66.10
53926;DHT22;39836;52.754;6.866;2022-09-01T09:40:13;21.80;66.20
53926;DHT22;39836;52.754;6.866;2022-09-01T09:47:54;22.20;66.00
53926;DHT22;39836;52.754;6.866;2022-09-01T09:50:24;22.30;66.00
53926;DHT22;39836;52.754;6.866;2022-09-01T09:52:52;22.30;65.80
53926;DHT22;39836;52.754;6.866;2022-09-01T09:55:29;22.30;65.60
53926;DHT22;39836;52.754;6.866;2022-09-01T09:57:58;22.40;65.50
53926;DHT22;39836;52.754;6.866;2022-09-01T10:00:32;22.50;65.50
53926;DHT22;39836;52.754;6.866;2022-09-01T10:03:06;22.50;65.50
53926;DHT22;39836;52.754;6.866;2022-09-01T10:05:47;22.70;65.10
53926;DHT22;39836;52.754;6.866;2022-09-01T10:08:44;22.80;64.90
53926;DHT22;39836;52.754;6.866;2022-09-01T10:11:11;22.90;65.00
53926;DHT22;39836;52.754;6.866;2022-09-01T10:13:38;22.90;64.90
53926;DHT22;39836;52.754;6.866;2022-09-01T10:16:08;23.00;65.00
53926;DHT22;39836;52.754;6.866;2022-09-01T10:18:43;23.10;65.10
53926;DHT22;39836;52.754;6.866;2022-09-01T10:21:21;23.10;64.70
53926;DHT22;39836;52.754;6.866;2022-09-01T10:23:48;23.20;64.40
53926;DHT22;39836;52.754;6.866;2022-09-01T10:26:23;23.20;64.50
53926;DHT22;39836;52.754;6.866;2022-09-01T10:31:22;23.10;63.90
53926;DHT22;39836;52.754;6.866;2022-09-01T10:33:49;23.20;64.20
53926;DHT22;39836;52.754;6.866;2022-09-01T10:36:16;23.20;63.90
53926;DHT22;39836;52.754;6.866;2022-09-01T10:38:42;23.30;63.90
53926;DHT22;39836;52.754;6.866;2022-09-01T10:41:08;23.40;63.80
53926;DHT22;39836;52.754;6.866;2022-09-01T10:48:47;23.70;63.60
53926;DHT22;39836;52.754;6.866;2022-09-01T10:53:46;23.70;63.60
53926;DHT22;39836;52.754;6.866;2022-09-01T11:02:15;23.10;63.10
53926;DHT22;39836;52.754;6.866;2022-09-01T11:10:15;22.60;63.30
53926;DHT22;39836;52.754;6.866;2022-09-01T11:23:12;23.70;63.30
53926;DHT22;39836;52.754;6.866;2022-09-01T11:25:52;23.70;63.30
53926;DHT22;39836;52.754;6.866;2022-09-01T11:30:55;24.20;63.20
53926;DHT22;39836;52.754;6.866;2022-09-01T11:33:51;24.50;63.10
53926;DHT22;39836;52.754;6.866;2022-09-01T11:38:57;25.00;62.90
53926;DHT22;39836;52.754;6.866;2022-09-01T11:46:47;24.80;62.30
53926;DHT22;39836;52.754;6.866;2022-09-01T11:49:34;24.40;62.20
53926;DHT22;39836;52.754;6.866;2022-09-01T11:52:02;24.00;62.10
53926;DHT22;39836;52.754;6.866;2022-09-01T11:54:29;23.70;62.30
53926;DHT22;39836;52.754;6.866;2022-09-01T11:59:43;23.90;62.30
53926;DHT22;39836;52.754;6.866;2022-09-01T12:02:17;24.10;62.30
53926;DHT22;39836;52.754;6.866;2022-09-01T12:04:43;24.40;62.10
53926;DHT22;39836;52.754;6.866;2022-09-01T12:07:37;24.60;61.90
53926;DHT22;39836;52.754;6.866;2022-09-01T12:10:14;24.90;62.10
53926;DHT22;39836;52.754;6.866;2022-09-01T12:12:41;25.00;61.80
53926;DHT22;39836;52.754;6.866;2022-09-01T12:17:35;24.50;61.70
53926;DHT22;39836;52.754;6.866;2022-09-01T12:22:49;23.90;61.50
53926;DHT22;39836;52.754;6.866;2022-09-01T12:25:21;23.90;61.80
53926;DHT22;39836;52.754;6.866;2022-09-01T12:27:47;23.80;61.80
53926;DHT22;39836;52.754;6.866;2022-09-01T12:30:13;23.70;61.80
53926;DHT22;39836;52.754;6.866;2022-09-01T12:32:39;23.60;61.50
53926;DHT22;39836;52.754;6.866;2022-09-01T12:35:14;23.40;61.30
53926;DHT22;39836;52.754;6.866;2022-09-01T12:37:42;23.50;61.50
53926;DHT22;39836;52.754;6.866;2022-09-01T12:40:31;23.30;61.60
53926;DHT22;39836;52.754;6.866;2022-09-01T12:42:57;23.40;61.90
53926;DHT22;39836;52.754;6.866;2022-09-01T12:45:44;23.70;61.90
53926;DHT22;39836;52.754;6.866;2022-09-01T12:48:24;24.00;61.70
53926;DHT22;39836;52.754;6.866;2022-09-01T12:50:51;24.40;61.50
53926;DHT22;39836;52.754;6.866;2022-09-01T12:53:19;24.20;61.60
53926;DHT22;39836;52.754;6.866;2022-09-01T12:56:02;24.30;61.90
53926;DHT22;39836;52.754;6.866;2022-09-01T12:58:29;25.00;61.90
53926;DHT22;39836;52.754;6.866;2022-09-01T13:01:04;25.60;62.00
53926;DHT22;39836;52.754;6.866;2022-09-01T13:03:33;26.10;61.70
53926;DHT22;39836;52.754;6.866;2022-09-01T13:06:00;26.60;61.90
53926;DHT22;39836;52.754;6.866;2022-09-01T13:08:34;26.90;61.20
53926;DHT22;39836;52.754;6.866;2022-09-01T13:11:05;26.70;60.90
53926;DHT22;39836;52.754;6.866;2022-09-01T13:13:32;25.90;60.70
53926;DHT22;39836;52.754;6.866;2022-09-01T13:16:01;25.90;60.80
53926;DHT22;39836;52.754;6.866;2022-09-01T13:18:33;26.40;60.90
53926;DHT22;39836;52.754;6.866;2022-09-01T13:20:59;26.80;61.00
53926;DHT22;39836;52.754;6.866;2022-09-01T13:23:25;27.20;61.20
53926;DHT22;39836;52.754;6.866;2022-09-01T13:25:51;27.60;61.00
53926;DHT22;39836;52.754;6.866;2022-09-01T13:28:17;27.70;60.80
53926;DHT22;39836;52.754;6.866;2022-09-01T13:30:49;26.60;60.50
53926;DHT22;39836;52.754;6.866;2022-09-01T13:33:17;26.00;60.70
53926;DHT22;39836;52.754;6.866;2022-09-01T13:35:43;25.90;60.60
53926;DHT22;39836;52.754;6.866;2022-09-01T13:38:09;26.30;60.70
53926;DHT22;39836;52.754;6.866;2022-09-01T13:40:35;26.90;60.70
53926;DHT22;39836;52.754;6.866;2022-09-01T13:43:00;27.40;60.80
53926;DHT22;39836;52.754;6.866;2022-09-01T13:45:29;27.50;60.60
53926;DHT22;39836;52.754;6.866;2022-09-01T13:47:55;26.90;60.40
53926;DHT22;39836;52.754;6.866;2022-09-01T13:50:22;26.40;60.30
53926;DHT22;39836;52.754;6.866;2022-09-01T13:52:51;26.00;60.60
53926;DHT22;39836;52.754;6.866;2022-09-01T13:55:22;25.80;60.30
53926;DHT22;39836;52.754;6.866;2022-09-01T13:57:48;26.20;60.50
53926;DHT22;39836;52.754;6.866;2022-09-01T14:00:17;26.90;60.60
53926;DHT22;39836;52.754;6.866;2022-09-01T14:02:46;27.50;60.60
53926;DHT22;39836;52.754;6.866;2022-09-01T14:05:27;28.30;60.70
53926;DHT22;39836;52.754;6.866;2022-09-01T14:07:53;28.60;60.50
53926;DHT22;39836;52.754;6.866;2022-09-01T14:10:21;28.10;60.10
53926;DHT22;39836;52.754;6.866;2022-09-01T14:12:47;27.40;59.90
53926;DHT22;39836;52.754;6.866;2022-09-01T14:15:14;26.70;59.90
53926;DHT22;39836;52.754;6.866;2022-09-01T14:17:41;26.20;59.30
53926;DHT22;39836;52.754;6.866;2022-09-01T14:20:11;25.80;59.40
53926;DHT22;39836;52.754;6.866;2022-09-01T14:22:38;26.00;60.00
53926;DHT22;39836;52.754;6.866;2022-09-01T14:25:06;26.60;60.10
53926;DHT22;39836;52.754;6.866;2022-09-01T14:27:32;27.10;59.70
53926;DHT22;39836;52.754;6.866;2022-09-01T14:29:57;26.90;58.70
53926;DHT22;39836;52.754;6.866;2022-09-01T14:32:23;26.50;58.40
53926;DHT22;39836;52.754;6.866;2022-09-01T14:34:55;26.00;58.50
53926;DHT22;39836;52.754;6.866;2022-09-01T14:37:22;26.00;60.00
53926;DHT22;39836;52.754;6.866;2022-09-01T14:39:56;26.80;60.10
53926;DHT22;39836;52.754;6.866;2022-09-01T14:42:22;27.00;59.90
53926;DHT22;39836;52.754;6.866;2022-09-01T14:44:50;26.80;60.00
53926;DHT22;39836;52.754;6.866;2022-09-01T14:47:16;26.40;59.20
53926;DHT22;39836;52.754;6.866;2022-09-01T14:49:42;26.00;59.10
53926;DHT22;39836;52.754;6.866;2022-09-01T14:52:09;25.70;58.90
53926;DHT22;39836;52.754;6.866;2022-09-01T14:54:37;25.60;59.00
53926;DHT22;39836;52.754;6.866;2022-09-01T14:57:04;25.50;58.70
53926;DHT22;39836;52.754;6.866;2022-09-01T14:59:31;25.30;58.70
53926;DHT22;39836;52.754;6.866;2022-09-01T15:01:57;25.00;58.80
53926;DHT22;39836;52.754;6.866;2022-09-01T15:04:23;24.80;58.90
53926;DHT22;39836;52.754;6.866;2022-09-01T15:06:49;24.70;59.10
53926;DHT22;39836;52.754;6.866;2022-09-01T15:09:15;24.60;60.00
53926;DHT22;39836;52.754;6.866;2022-09-01T15:11:42;24.40;59.30
53926;DHT22;39836;52.754;6.866;2022-09-01T15:14:08;24.30;59.90
53926;DHT22;39836;52.754;6.866;2022-09-01T15:16:35;24.30;59.90
53926;DHT22;39836;52.754;6.866;2022-09-01T15:19:12;24.30;59.30
53926;DHT22;39836;52.754;6.866;2022-09-01T15:21:40;24.30;59.70
53926;DHT22;39836;52.754;6.866;2022-09-01T15:24:06;24.20;58.50
53926;DHT22;39836;52.754;6.866;2022-09-01T15:26:33;24.10;58.30
53926;DHT22;39836;52.754;6.866;2022-09-01T15:28:59;24.10;58.80
53926;DHT22;39836;52.754;6.866;2022-09-01T15:31:27;24.20;59.10
53926;DHT22;39836;52.754;6.866;2022-09-01T15:33:56;24.20;58.70
53926;DHT22;39836;52.754;6.866;2022-09-01T15:36:24;24.10;58.30
53926;DHT22;39836;52.754;6.866;2022-09-01T15:38:51;24.10;57.50
53926;DHT22;39836;52.754;6.866;2022-09-01T15:41:23;24.20;58.20
53926;DHT22;39836;52.754;6.866;2022-09-01T15:43:50;24.10;57.70
53926;DHT22;39836;52.754;6.866;2022-09-01T15:46:16;24.00;57.70
53926;DHT22;39836;52.754;6.866;2022-09-01T15:48:42;24.00;58.00
53926;DHT22;39836;52.754;6.866;2022-09-01T15:53:50;23.90;57.40
53926;DHT22;39836;52.754;6.866;2022-09-01T15:56:17;23.80;57.60
53926;DHT22;39836;52.754;6.866;2022-09-01T15:58:43;23.80;57.40
53926;DHT22;39836;52.754;6.866;2022-09-01T16:01:10;23.70;56.70
53926;DHT22;39836;52.754;6.866;2022-09-01T16:03:35;23.70;57.20
53926;DHT22;39836;52.754;6.866;2022-09-01T16:06:02;23.60;57.50
53926;DHT22;39836;52.754;6.866;2022-09-01T16:08:28;23.60;57.60
53926;DHT22;39836;52.754;6.866;2022-09-01T16:10:54;23.60;57.00
53926;DHT22;39836;52.754;6.866;2022-09-01T16:13:20;23.60;57.20
53926;DHT22;39836;52.754;6.866;2022-09-01T16:15:55;23.60;56.40
53926;DHT22;39836;52.754;6.866;2022-09-01T16:18:52;23.50;56.40
53926;DHT22;39836;52.754;6.866;2022-09-01T16:24:11;23.40;57.10
53926;DHT22;39836;52.754;6.866;2022-09-01T16:26:38;23.40;56.80
53926;DHT22;39836;52.754;6.866;2022-09-01T16:29:11;23.30;56.70
53926;DHT22;39836;52.754;6.866;2022-09-01T16:31:38;23.30;56.20
53926;DHT22;39836;52.754;6.866;2022-09-01T16:34:14;23.30;57.10
53926;DHT22;39836;52.754;6.866;2022-09-01T16:39:49;23.20;57.00
53926;DHT22;39836;52.754;6.866;2022-09-01T16:45:31;23.10;58.00
53926;DHT22;39836;52.754;6.866;2022-09-01T16:50:42;23.10;56.50
53926;DHT22;39836;52.754;6.866;2022-09-01T16:56:17;23.10;56.20
53926;DHT22;39836;52.754;6.866;2022-09-01T17:04:08;22.90;57.40
53926;DHT22;39836;52.754;6.866;2022-09-01T17:09:29;22.80;57.40
53926;DHT22;39836;52.754;6.866;2022-09-01T17:12:32;22.80;56.70
53926;DHT22;39836;52.754;6.866;2022-09-01T17:15:13;22.70;56.50
53926;DHT22;39836;52.754;6.866;2022-09-01T17:17:52;22.70;56.50
53926;DHT22;39836;52.754;6.866;2022-09-01T17:20:26;22.70;57.30
53926;DHT22;39836;52.754;6.866;2022-09-01T17:22:55;22.60;56.70